createdAt,value
2022-12-15T00:02:44.170Z,31.70
2022-12-15T00:05:29.545Z,30.83
2022-12-15T00:08:14.908Z,32.73
2022-12-15T00:11:00.097Z,30.43
2022-12-15T00:13:45.533Z,30.70
2022-12-15T00:16:32.027Z,32.33
2022-12-15T00:19:17.308Z,31.50
2022-12-15T00:22:02.693Z,30.53
2022-12-15T00:24:49.779Z,32.50
2022-12-15T00:27:35.481Z,31.47
2022-12-15T00:30:20.846Z,32.30
2022-12-15T00:33:07.423Z,32.43
2022-12-15T00:35:52.475Z,31.10
2022-12-15T00:38:37.811Z,31.10
2022-12-15T00:41:06.234Z,33.13
2022-12-15T00:43:36.022Z,31.80
2022-12-15T00:46:22.966Z,30.70
2022-12-15T00:48:51.985Z,31.30
2022-12-15T00:51:19.256Z,33.13
2022-12-15T00:54:04.948Z,32.47
2022-12-15T00:56:50.904Z,31.63
2022-12-15T00:59:36.048Z,33.10
2022-12-15T01:02:22.483Z,31.37
2022-12-15T01:05:09.078Z,31.77
2022-12-15T01:07:54.436Z,32.70
2022-12-15T01:10:39.630Z,30.43
2022-12-15T01:13:25.168Z,30.80
2022-12-15T01:16:10.820Z,30.17
2022-12-15T01:18:55.979Z,32.53
2022-12-15T01:21:25.488Z,30.83
2022-12-15T01:23:53.862Z,31.50
2022-12-15T01:26:21.477Z,33.60
2022-12-15T01:28:49.112Z,32.13
2022-12-15T01:31:16.882Z,31.97
2022-12-15T01:33:44.492Z,33.00
2022-12-15T01:36:12.372Z,32.97
2022-12-15T01:38:41.313Z,32.17
2022-12-15T01:41:11.037Z,32.37
2022-12-15T01:43:41.037Z,31.23
2022-12-15T01:46:10.420Z,32.30
2022-12-15T01:48:42.589Z,32.37
2022-12-15T01:51:15.951Z,31.67
2022-12-15T01:53:51.579Z,32.60
2022-12-15T01:56:21.284Z,32.17
2022-12-15T01:58:52.205Z,32.60
2022-12-15T02:01:19.909Z,33.87
2022-12-15T02:03:48.415Z,35.07
2022-12-15T02:06:18.025Z,35.10
2022-12-15T02:08:48.415Z,33.57
2022-12-15T02:11:47.814Z,31.20
2022-12-15T02:14:25.982Z,32.30
2022-12-15T02:17:05.691Z,33.67
2022-12-15T02:20:09.730Z,36.57
2022-12-15T02:23:01.555Z,33.00
2022-12-15T02:25:55.844Z,32.53
2022-12-15T02:28:40.196Z,33.90
2022-12-15T02:31:32.384Z,35.20
2022-12-15T02:34:07.296Z,33.13
2022-12-15T02:36:39.284Z,33.50
2022-12-15T02:39:07.266Z,33.30
2022-12-15T02:41:40.663Z,35.00
2022-12-15T02:44:12.268Z,32.40
2022-12-15T02:46:55.505Z,32.37
2022-12-15T02:49:36.388Z,30.60
2022-12-15T02:52:14.860Z,31.53
2022-12-15T02:54:58.947Z,30.80
2022-12-15T02:57:35.399Z,31.90
2022-12-15T03:00:06.900Z,30.30
2022-12-15T03:02:38.945Z,30.97
2022-12-15T03:05:07.590Z,32.13
2022-12-15T03:07:35.196Z,34.40
2022-12-15T03:10:06.628Z,34.17
2022-12-15T03:12:34.279Z,33.23
2022-12-15T03:15:01.918Z,34.57
2022-12-15T03:17:29.522Z,34.27
2022-12-15T03:19:58.470Z,36.30
2022-12-15T03:22:26.446Z,36.27
2022-12-15T03:24:54.081Z,36.80
2022-12-15T03:27:21.662Z,38.67
2022-12-15T03:29:49.235Z,39.20
2022-12-15T03:32:16.908Z,40.53
2022-12-15T03:34:45.227Z,38.30
2022-12-15T03:37:14.246Z,38.10
2022-12-15T03:39:41.837Z,38.70
2022-12-15T03:42:09.491Z,38.70
2022-12-15T03:44:37.084Z,37.70
2022-12-15T03:47:04.695Z,37.23
2022-12-15T03:49:32.342Z,35.57
2022-12-15T03:51:59.930Z,35.60
2022-12-15T03:54:28.915Z,36.17
2022-12-15T03:56:56.494Z,34.93
2022-12-15T03:59:24.144Z,33.03
2022-12-15T04:01:51.830Z,35.53
2022-12-15T04:04:19.462Z,34.03
2022-12-15T04:06:47.079Z,34.67
2022-12-15T04:09:14.671Z,33.90
2022-12-15T04:11:44.270Z,35.00
2022-12-15T04:14:11.914Z,33.10
2022-12-15T04:16:39.540Z,36.53
2022-12-15T04:19:24.591Z,34.70
2022-12-15T04:21:52.183Z,32.43
2022-12-15T04:24:37.367Z,36.47
2022-12-15T04:27:24.130Z,33.27
2022-12-15T04:30:09.499Z,33.60
2022-12-15T04:32:54.921Z,33.17
2022-12-15T04:35:40.018Z,34.90
2022-12-15T04:38:25.369Z,34.73
2022-12-15T04:41:10.803Z,32.93
2022-12-15T04:43:58.464Z,32.43
2022-12-15T04:46:43.652Z,37.47
2022-12-15T04:49:28.857Z,35.53
2022-12-15T04:52:14.047Z,32.60
2022-12-15T04:54:59.230Z,34.13
2022-12-15T04:57:44.496Z,33.40
2022-12-15T05:00:31.850Z,35.10
2022-12-15T05:03:23.194Z,36.80
2022-12-15T05:06:08.319Z,35.27
2022-12-15T05:08:53.499Z,33.30
2022-12-15T05:11:38.908Z,35.53
2022-12-15T05:14:24.203Z,35.13
2022-12-15T05:17:10.472Z,34.10
2022-12-15T05:19:55.750Z,34.77
2022-12-15T05:22:41.151Z,33.50
2022-12-15T05:25:27.151Z,34.23
2022-12-15T05:28:12.436Z,37.00
2022-12-15T05:30:57.747Z,35.07
2022-12-15T05:33:26.835Z,37.70
2022-12-15T05:35:57.215Z,36.43
2022-12-15T05:38:24.835Z,36.77
2022-12-15T05:40:52.430Z,37.67
2022-12-15T05:43:24.759Z,36.70
2022-12-15T05:45:54.189Z,37.83
2022-12-15T05:48:21.817Z,36.37
2022-12-15T05:50:50.753Z,37.50
2022-12-15T05:53:18.323Z,37.47
2022-12-15T05:55:45.957Z,37.20
2022-12-15T05:58:13.582Z,36.60
2022-12-15T06:00:41.189Z,36.70
2022-12-15T06:03:08.812Z,36.10
2022-12-15T06:05:36.482Z,33.37
2022-12-15T06:08:05.881Z,34.80
2022-12-15T06:10:33.511Z,35.97
2022-12-15T06:13:01.800Z,35.67
2022-12-15T06:15:29.520Z,35.57
2022-12-15T06:17:57.103Z,36.43
2022-12-15T06:20:24.696Z,35.67
2022-12-15T06:22:52.364Z,33.83
2022-12-15T06:25:21.276Z,34.80
2022-12-15T06:27:48.829Z,36.40
2022-12-15T06:30:16.469Z,35.93
2022-12-15T06:32:44.039Z,36.50
2022-12-15T06:35:11.615Z,37.30
2022-12-15T06:37:39.219Z,38.00
2022-12-15T06:40:08.187Z,40.00
2022-12-15T06:42:37.145Z,38.60
2022-12-15T06:45:05.418Z,36.33
2022-12-15T06:47:33.040Z,38.60
2022-12-15T06:50:00.641Z,40.33
2022-12-15T06:52:28.219Z,40.23
2022-12-15T06:54:55.810Z,40.20
2022-12-15T06:57:23.369Z,40.67
2022-12-15T06:59:52.339Z,39.20
2022-12-15T07:02:25.192Z,40.93
2022-12-15T07:04:56.257Z,40.17
2022-12-15T07:07:23.925Z,40.33
2022-12-15T07:09:51.556Z,37.80
2022-12-15T07:12:19.134Z,38.47
2022-12-15T07:14:53.024Z,39.60
2022-12-15T07:17:22.423Z,39.00
2022-12-15T07:19:50.003Z,38.60
2022-12-15T07:22:17.611Z,37.07
2022-12-15T07:24:46.000Z,36.40
2022-12-15T07:27:13.587Z,40.60
2022-12-15T07:29:41.303Z,41.87
2022-12-15T07:32:08.886Z,39.10
2022-12-15T07:34:37.811Z,39.20
2022-12-15T07:37:05.419Z,39.00
2022-12-15T07:39:33.131Z,44.33
2022-12-15T07:42:01.215Z,40.57
2022-12-15T07:44:29.970Z,40.00
2022-12-15T07:46:57.568Z,37.83
2022-12-15T07:49:25.166Z,39.43
2022-12-15T07:51:58.267Z,40.73
2022-12-15T07:54:26.500Z,38.83
2022-12-15T07:56:54.079Z,39.70
2022-12-15T07:59:21.667Z,36.93
2022-12-15T08:01:49.559Z,37.03
2022-12-15T08:04:17.421Z,39.37
2022-12-15T08:06:45.065Z,37.53
2022-12-15T08:09:13.997Z,39.33
2022-12-15T08:11:41.538Z,37.67
2022-12-15T08:14:15.044Z,38.33
2022-12-15T08:16:45.318Z,37.00
2022-12-15T08:19:15.151Z,38.00
2022-12-15T08:21:44.052Z,36.30
2022-12-15T08:24:11.669Z,36.30
2022-12-15T08:26:41.830Z,37.07
2022-12-15T08:29:48.765Z,39.87
2022-12-15T08:32:00.306Z,38.67
2022-12-15T08:34:28.037Z,40.30
2022-12-15T08:36:55.579Z,38.00
2022-12-15T08:39:23.169Z,40.70
2022-12-15T08:41:52.176Z,40.53
2022-12-15T08:44:19.847Z,39.57
2022-12-15T08:46:47.374Z,40.63
2022-12-15T08:49:21.203Z,39.40
2022-12-15T08:51:50.379Z,39.23
2022-12-15T08:54:19.116Z,39.70
2022-12-15T08:56:46.779Z,38.67
2022-12-15T08:59:15.778Z,38.40
2022-12-15T09:01:43.551Z,40.57
2022-12-15T09:04:11.378Z,39.87
2022-12-15T09:06:38.983Z,40.43
2022-12-15T09:09:08.780Z,39.47
2022-12-15T09:11:36.800Z,40.27
2022-12-15T09:14:04.522Z,37.70
2022-12-15T09:16:33.520Z,39.23
2022-12-15T09:19:01.748Z,41.00
2022-12-15T09:21:30.961Z,38.73
2022-12-15T09:24:01.565Z,39.57
2022-12-15T09:26:30.749Z,39.77
2022-12-15T09:28:58.720Z,39.73
2022-12-15T09:31:29.247Z,39.37
2022-12-15T09:34:00.008Z,38.33
2022-12-15T09:36:28.353Z,40.73
2022-12-15T09:38:56.097Z,37.37
2022-12-15T09:41:27.066Z,38.20
2022-12-15T09:43:58.421Z,40.03
2022-12-15T09:46:40.407Z,38.10
2022-12-15T09:49:14.597Z,36.63
2022-12-15T09:51:49.044Z,38.43
2022-12-15T09:54:16.689Z,39.67
2022-12-15T09:56:50.331Z,39.67
2022-12-15T09:59:30.651Z,40.40
2022-12-15T10:02:19.694Z,43.03
2022-12-15T10:04:57.647Z,41.80
2022-12-15T10:07:32.080Z,39.97
2022-12-15T10:09:59.849Z,39.03
2022-12-15T10:12:33.222Z,39.87
2022-12-15T10:15:14.044Z,38.07
2022-12-15T10:17:46.424Z,40.60
2022-12-15T10:20:21.267Z,39.33
2022-12-15T10:22:50.442Z,40.90
2022-12-15T10:25:27.484Z,43.40
2022-12-15T10:28:18.100Z,43.50
2022-12-15T10:30:52.666Z,42.50
2022-12-15T10:33:24.076Z,43.13
2022-12-15T10:35:54.753Z,46.07
2022-12-15T10:38:26.304Z,45.40
2022-12-15T10:40:56.875Z,41.57
2022-12-15T10:43:31.743Z,41.20
2022-12-15T10:46:13.399Z,41.27
2022-12-15T10:48:41.561Z,44.10
2022-12-15T10:51:20.052Z,42.33
2022-12-15T10:56:50.206Z,42.27
2022-12-15T10:59:26.170Z,40.37
2022-12-15T11:01:53.949Z,52.47
2022-12-15T11:04:28.700Z,43.80
2022-12-15T11:07:02.410Z,40.83
2022-12-15T11:09:34.709Z,40.90
2022-12-15T11:12:20.134Z,42.00
2022-12-15T11:14:49.357Z,43.77
2022-12-15T11:17:20.506Z,45.33
2022-12-15T11:20:01.965Z,38.73
2022-12-15T11:22:42.571Z,37.57
2022-12-15T11:25:21.918Z,40.77
2022-12-15T11:27:51.453Z,41.83
2022-12-15T11:30:22.163Z,40.53
2022-12-15T11:32:53.516Z,39.90
2022-12-15T11:35:28.545Z,39.77
2022-12-15T11:38:06.576Z,40.60
2022-12-15T11:40:40.724Z,41.37
2022-12-15T11:43:44.092Z,40.40
2022-12-15T11:46:23.752Z,40.40
2022-12-15T11:49:20.392Z,41.03
2022-12-15T11:51:57.754Z,40.57
2022-12-15T11:54:31.074Z,40.63
2022-12-15T11:57:08.452Z,40.50
2022-12-15T12:00:02.943Z,39.50
2022-12-15T12:02:43.665Z,40.10
2022-12-15T12:05:27.833Z,39.13
2022-12-15T12:08:07.484Z,40.53
2022-12-15T12:10:43.893Z,40.50
2022-12-15T12:13:23.576Z,39.60
2022-12-15T12:15:58.567Z,39.63
2022-12-15T12:18:32.483Z,39.80
2022-12-15T12:21:06.206Z,40.60
2022-12-15T12:23:39.600Z,41.23
2022-12-15T12:26:14.382Z,40.90
2022-12-15T12:28:48.574Z,41.40
2022-12-15T12:31:27.329Z,41.63
2022-12-15T12:33:59.717Z,40.10
2022-12-15T12:36:27.276Z,41.47
2022-12-15T12:38:56.686Z,40.70
2022-12-15T12:41:36.438Z,39.87
2022-12-15T12:44:12.216Z,41.37
2022-12-15T12:46:46.787Z,40.80
2022-12-15T12:49:26.799Z,40.00
2022-12-15T12:51:58.522Z,39.97
2022-12-15T12:54:45.237Z,41.03
2022-12-15T12:57:33.875Z,40.17
2022-12-15T13:00:03.608Z,39.20
2022-12-15T13:02:46.345Z,41.40
2022-12-15T13:05:31.266Z,40.73
2022-12-15T13:08:40.640Z,41.57
2022-12-15T13:12:00.804Z,41.20
2022-12-15T13:14:42.203Z,40.07
2022-12-15T13:17:26.424Z,43.47
2022-12-15T13:20:29.277Z,41.70
2022-12-15T13:23:13.063Z,42.07
2022-12-15T13:25:42.886Z,41.70
2022-12-15T13:28:31.029Z,39.37
2022-12-15T13:31:33.199Z,43.57
2022-12-15T13:34:28.574Z,43.77
2022-12-15T13:37:01.196Z,44.07
2022-12-15T13:39:58.813Z,45.43
2022-12-15T13:45:36.290Z,43.43
2022-12-15T13:48:16.650Z,40.73
2022-12-15T13:53:42.877Z,42.17
2022-12-15T13:56:26.033Z,41.27
2022-12-15T13:59:02.357Z,45.33
2022-12-15T14:01:33.026Z,46.20
2022-12-15T14:04:07.750Z,42.70
2022-12-15T14:06:38.905Z,47.37
2022-12-15T14:09:07.795Z,46.40
2022-12-15T14:11:52.678Z,44.40
2022-12-15T14:14:24.338Z,41.63
2022-12-15T14:16:59.410Z,44.90
2022-12-15T14:19:38.795Z,41.77
2022-12-15T14:22:27.190Z,43.00
2022-12-15T14:25:01.508Z,45.70
2022-12-15T14:27:31.889Z,43.60
2022-12-15T14:30:29.226Z,42.80
2022-12-15T14:33:01.448Z,45.03
2022-12-15T14:35:36.054Z,46.00
2022-12-15T14:38:07.849Z,45.13
2022-12-15T14:40:37.502Z,44.47
2022-12-15T14:43:05.943Z,45.50
2022-12-15T14:45:33.802Z,46.57
2022-12-15T14:50:52.640Z,41.20
2022-12-15T14:53:22.725Z,43.83
2022-12-15T14:55:51.470Z,43.63
2022-12-15T14:58:32.209Z,45.23
2022-12-15T15:01:00.890Z,45.67
2022-12-15T15:03:07.531Z,43.30
2022-12-15T15:03:09.925Z,41.10
2022-12-15T15:03:13.257Z,44.20
2022-12-15T15:03:37.081Z,43.60
2022-12-15T15:06:15.548Z,44.57
2022-12-15T15:08:46.648Z,43.20
2022-12-15T15:11:26.784Z,44.43
2022-12-15T15:13:56.826Z,47.67
2022-12-15T15:16:24.691Z,41.40
2022-12-15T15:18:55.952Z,42.23
2022-12-15T15:21:27.869Z,42.60
2022-12-15T15:24:00.368Z,42.50
2022-12-15T15:26:28.224Z,47.00
2022-12-15T15:28:56.228Z,69.70
2022-12-15T15:31:33.878Z,52.20
2022-12-15T15:34:05.183Z,47.50
2022-12-15T15:36:36.728Z,47.77
2022-12-15T15:39:11.237Z,44.37
2022-12-15T15:41:39.124Z,44.93
2022-12-15T15:44:13.501Z,46.67
2022-12-15T15:46:47.352Z,46.73
2022-12-15T15:49:17.892Z,50.00
2022-12-15T15:51:46.892Z,51.83
2022-12-15T15:54:17.635Z,52.97
2022-12-15T15:56:45.228Z,51.00
2022-12-15T15:59:14.563Z,52.97
2022-12-15T16:01:42.257Z,48.30
2022-12-15T16:04:10.059Z,47.13
2022-12-15T16:06:42.090Z,46.23
2022-12-15T16:09:16.696Z,45.70
2022-12-15T16:11:45.892Z,45.50
2022-12-15T16:14:14.561Z,45.50
2022-12-15T16:16:42.658Z,46.53
2022-12-15T16:19:11.911Z,47.73
2022-12-15T16:21:41.547Z,49.97
2022-12-15T16:24:14.364Z,48.27
2022-12-15T16:26:47.941Z,60.80
2022-12-15T16:29:16.558Z,55.50
2022-12-15T16:31:45.420Z,53.70
2022-12-15T16:34:13.385Z,53.60
2022-12-15T16:36:41.887Z,52.40
2022-12-15T16:39:24.556Z,52.67
2022-12-15T16:41:55.215Z,48.20
2022-12-15T16:44:23.095Z,45.17
2022-12-15T16:46:51.305Z,47.50
2022-12-15T16:49:18.981Z,46.60
2022-12-15T16:51:48.963Z,49.33
2022-12-15T16:54:20.769Z,50.80
2022-12-15T16:56:48.454Z,49.87
2022-12-15T16:59:35.036Z,47.97
2022-12-15T17:02:18.399Z,52.40
2022-12-15T17:04:46.084Z,48.80
2022-12-15T17:07:19.938Z,47.20
2022-12-15T17:09:48.450Z,46.13
2022-12-15T17:12:17.853Z,45.37
2022-12-15T17:14:47.068Z,48.50
2022-12-15T17:17:15.732Z,47.70
2022-12-15T17:19:57.935Z,50.23
2022-12-15T17:22:32.662Z,47.70
2022-12-15T17:25:00.302Z,48.10
2022-12-15T17:27:30.092Z,48.47
2022-12-15T17:30:00.484Z,48.73
2022-12-15T17:32:28.117Z,46.37
2022-12-15T17:34:55.812Z,48.27
2022-12-15T17:37:26.194Z,50.20
2022-12-15T17:39:56.825Z,48.57
2022-12-15T17:42:24.400Z,50.83
2022-12-15T17:44:52.060Z,49.87
2022-12-15T17:47:21.025Z,50.50
2022-12-15T17:49:48.609Z,51.87
2022-12-15T17:52:25.348Z,49.30
2022-12-15T17:54:53.725Z,49.33
2022-12-15T17:57:21.549Z,48.43
2022-12-15T17:59:49.320Z,48.50
2022-12-15T18:02:17.152Z,50.00
2022-12-15T18:04:46.675Z,51.27
2022-12-15T18:07:17.687Z,53.33
2022-12-15T18:09:45.268Z,49.67
2022-12-15T18:12:19.640Z,50.00
2022-12-15T18:14:47.722Z,50.07
2022-12-15T18:17:15.393Z,54.10
2022-12-15T18:19:42.932Z,52.67
2022-12-15T18:22:15.348Z,55.93
2022-12-15T18:24:43.181Z,52.97
2022-12-15T18:27:20.135Z,54.87
2022-12-15T18:29:47.700Z,50.60
2022-12-15T18:32:17.029Z,49.40
2022-12-15T18:34:45.013Z,48.90
2022-12-15T18:37:16.517Z,51.60
2022-12-15T18:39:44.251Z,52.77
2022-12-15T18:42:15.392Z,57.20
2022-12-15T18:44:46.161Z,55.37
2022-12-15T18:47:17.702Z,55.23
2022-12-15T18:49:45.505Z,52.70
2022-12-15T18:52:18.471Z,53.97
2022-12-15T18:54:47.360Z,52.73
2022-12-15T18:57:28.181Z,53.27
2022-12-15T18:59:58.729Z,49.23
2022-12-15T19:02:26.451Z,51.60
2022-12-15T19:04:54.084Z,46.00
2022-12-15T19:07:23.027Z,49.57
2022-12-15T19:09:50.860Z,49.87
2022-12-15T19:12:18.639Z,49.43
2022-12-15T19:14:47.333Z,53.73
2022-12-15T19:17:34.489Z,53.47
2022-12-15T19:20:20.153Z,55.70
2022-12-15T19:22:49.889Z,57.33
2022-12-15T19:25:25.372Z,53.17
2022-12-15T19:27:58.294Z,55.00
2022-12-15T19:30:28.320Z,56.77
2022-12-15T19:32:56.392Z,58.50
2022-12-15T19:35:24.714Z,60.73
2022-12-15T19:37:55.444Z,56.87
2022-12-15T19:40:27.353Z,62.40
2022-12-15T19:42:55.677Z,58.57
2022-12-15T19:45:26.081Z,58.93
2022-12-15T19:47:54.032Z,60.10
2022-12-15T19:50:23.412Z,59.10
2022-12-15T19:52:57.494Z,57.40
2022-12-15T19:55:29.327Z,58.67
2022-12-15T19:57:57.199Z,61.00
2022-12-15T20:00:25.150Z,56.67
2022-12-15T20:02:54.943Z,59.13
2022-12-15T20:05:23.578Z,61.00
2022-12-15T20:07:52.950Z,61.80
2022-12-15T20:10:29.537Z,62.97
2022-12-15T20:12:59.745Z,68.83
2022-12-15T20:15:27.379Z,66.60
2022-12-15T20:17:56.645Z,65.03
2022-12-15T20:20:26.776Z,61.60
2022-12-15T20:22:57.413Z,62.00
2022-12-15T20:25:29.587Z,59.93
2022-12-15T20:27:57.632Z,60.87
2022-12-15T20:30:27.082Z,61.50
2022-12-15T20:32:54.974Z,58.43
2022-12-15T20:35:23.695Z,58.50
2022-12-15T20:37:52.493Z,59.00
2022-12-15T20:40:23.004Z,63.23
2022-12-15T20:42:53.558Z,57.83
2022-12-15T20:45:23.754Z,58.90
2022-12-15T20:47:53.406Z,56.27
2022-12-15T20:50:27.860Z,53.67
2022-12-15T20:52:55.569Z,56.13
2022-12-15T20:55:23.379Z,49.27
2022-12-15T20:57:52.288Z,51.33
2022-12-15T21:00:20.011Z,49.80
2022-12-15T21:02:47.939Z,48.00
2022-12-15T21:05:19.996Z,46.50
2022-12-15T21:07:48.644Z,45.87
2022-12-15T21:10:18.354Z,47.93
2022-12-15T21:12:50.212Z,48.07
2022-12-15T21:15:21.710Z,47.83
2022-12-15T21:17:57.251Z,45.40
2022-12-15T21:20:39.597Z,46.43
2022-12-15T21:23:07.353Z,45.40
2022-12-15T21:25:35.377Z,45.20
2022-12-15T21:28:02.936Z,44.47
2022-12-15T21:30:31.910Z,44.63
2022-12-15T21:32:59.520Z,44.90
2022-12-15T21:35:30.285Z,43.53
2022-12-15T21:37:59.733Z,45.40
2022-12-15T21:40:29.400Z,45.93
2022-12-15T21:42:57.913Z,44.67
2022-12-15T21:45:27.117Z,44.10
2022-12-15T21:48:13.612Z,45.17
2022-12-15T21:50:44.530Z,44.90
2022-12-15T21:53:16.737Z,43.97
2022-12-15T21:55:46.785Z,44.07
2022-12-15T21:58:19.569Z,44.83
2022-12-15T22:00:47.709Z,46.03
2022-12-15T22:03:16.698Z,43.17
2022-12-15T22:05:44.244Z,43.90
2022-12-15T22:08:15.720Z,44.80
2022-12-15T22:10:45.195Z,44.10
2022-12-15T22:13:17.592Z,44.47
2022-12-15T22:15:45.992Z,43.53
2022-12-15T22:18:19.457Z,42.07
2022-12-15T22:20:50.297Z,44.93
2022-12-15T22:23:18.882Z,43.90
2022-12-15T22:25:47.044Z,45.67
2022-12-15T22:28:21.625Z,44.40
2022-12-15T22:30:50.294Z,45.07
2022-12-15T22:33:21.815Z,48.53
2022-12-15T22:35:52.608Z,47.90
2022-12-15T22:38:24.152Z,45.57
2022-12-15T22:40:55.532Z,44.97
2022-12-15T22:43:26.789Z,38.40
2022-12-15T22:45:56.451Z,40.70
2022-12-15T22:48:34.094Z,41.87
2022-12-15T22:51:04.580Z,39.10
2022-12-15T22:53:34.352Z,39.67
2022-12-15T22:56:05.946Z,40.40
2022-12-15T22:58:37.111Z,38.07
2022-12-15T23:01:06.849Z,35.80
2022-12-15T23:03:35.496Z,35.40
2022-12-15T23:06:05.592Z,33.27
2022-12-15T23:08:33.687Z,35.37
2022-12-15T23:11:18.623Z,32.60
2022-12-15T23:13:46.343Z,31.07
2022-12-15T23:16:22.187Z,31.47
2022-12-15T23:18:51.665Z,31.10
2022-12-15T23:21:21.831Z,31.90
2022-12-15T23:23:49.884Z,33.67
2022-12-15T23:26:19.857Z,34.53
2022-12-15T23:28:47.419Z,33.70
2022-12-15T23:31:15.048Z,33.77
2022-12-15T23:33:43.101Z,34.03
2022-12-15T23:36:12.106Z,34.77
2022-12-15T23:38:41.045Z,35.60
2022-12-15T23:41:08.605Z,34.30
2022-12-15T23:43:36.281Z,34.70
2022-12-15T23:46:06.225Z,32.00
2022-12-15T23:48:35.753Z,32.67
2022-12-15T23:51:05.318Z,32.50
2022-12-15T23:53:33.314Z,32.63
2022-12-15T23:56:08.192Z,31.97
2022-12-15T23:58:35.777Z,33.30
